createdAt,value
2018-07-11T00:02:22.679Z,8.00
2018-07-11T00:04:51.595Z,7.03
2018-07-11T00:07:21.644Z,7.30
2018-07-11T00:09:50.479Z,7.13
2018-07-11T00:12:19.339Z,6.80
2018-07-11T00:14:48.235Z,9.33
2018-07-11T00:17:16.945Z,7.37
2018-07-11T00:19:46.179Z,7.57
2018-07-11T00:22:15.170Z,8.30
2018-07-11T00:24:44.267Z,7.77
2018-07-11T00:27:13.238Z,7.10
2018-07-11T00:29:42.357Z,7.63
2018-07-11T00:32:11.048Z,7.60
2018-07-11T00:34:40.106Z,9.67
2018-07-11T00:37:09.204Z,9.83
2018-07-11T00:39:38.261Z,8.67
2018-07-11T00:42:07.503Z,11.60
2018-07-11T00:44:36.705Z,10.57
2018-07-11T00:47:05.761Z,10.03
2018-07-11T00:49:34.431Z,8.53
2018-07-11T00:52:03.784Z,6.43
2018-07-11T00:54:32.817Z,6.97
2018-07-11T00:57:01.837Z,6.23
2018-07-11T00:59:32.652Z,7.93
2018-07-11T01:02:04.970Z,6.97
2018-07-11T01:04:33.942Z,6.43
2018-07-11T01:07:03.944Z,7.37
2018-07-11T01:09:44.737Z,7.10
2018-07-11T01:12:13.628Z,8.43
2018-07-11T01:14:42.687Z,6.80
2018-07-11T01:17:17.360Z,6.83
2018-07-11T01:19:47.469Z,9.13
2018-07-11T01:22:16.437Z,7.70
2018-07-11T01:24:45.262Z,6.63
2018-07-11T01:27:14.144Z,11.70
2018-07-11T01:29:43.073Z,6.97
2018-07-11T01:32:11.660Z,6.47
2018-07-11T01:34:40.609Z,8.33
2018-07-11T01:37:09.923Z,5.83
2018-07-11T01:39:39.231Z,7.13
2018-07-11T01:42:08.179Z,9.87
2018-07-11T01:44:36.733Z,7.73
2018-07-11T01:47:06.111Z,6.20
2018-07-11T01:49:35.024Z,6.13
2018-07-11T01:52:14.972Z,6.07
2018-07-11T01:54:43.924Z,6.23
2018-07-11T01:57:13.771Z,6.33
2018-07-11T01:59:42.616Z,6.53
2018-07-11T02:02:11.547Z,7.13
2018-07-11T02:04:41.549Z,6.17
2018-07-11T02:07:11.501Z,6.50
2018-07-11T02:09:40.663Z,6.70
2018-07-11T02:12:09.609Z,10.17
2018-07-11T02:14:38.983Z,11.03
2018-07-11T02:17:07.957Z,10.17
2018-07-11T02:19:36.940Z,8.33
2018-07-11T02:22:06.003Z,7.93
2018-07-11T02:24:34.767Z,7.70
2018-07-11T02:27:03.714Z,7.97
2018-07-11T02:29:32.695Z,9.20
2018-07-11T02:32:01.622Z,7.83
2018-07-11T02:34:34.917Z,6.40
2018-07-11T02:37:04.601Z,6.90
2018-07-11T02:39:33.960Z,6.43
2018-07-11T02:42:02.394Z,7.30
2018-07-11T02:44:31.318Z,6.80
2018-07-11T02:47:05.318Z,5.60
2018-07-11T02:49:34.557Z,6.50
2018-07-11T02:52:03.678Z,7.43
2018-07-11T02:54:32.719Z,7.17
2018-07-11T02:57:01.508Z,7.07
2018-07-11T02:59:30.320Z,11.60
2018-07-11T03:01:59.479Z,6.73
2018-07-11T03:04:28.429Z,9.50
2018-07-11T03:06:57.171Z,6.03
2018-07-11T03:09:25.971Z,6.47
2018-07-11T03:11:54.739Z,6.90
2018-07-11T03:14:23.607Z,6.63
2018-07-11T03:16:52.573Z,6.93
2018-07-11T03:19:21.402Z,6.60
2018-07-11T03:21:50.329Z,7.73
2018-07-11T03:24:20.025Z,7.43
2018-07-11T03:26:48.999Z,6.83
2018-07-11T03:29:18.123Z,6.60
2018-07-11T03:31:47.181Z,6.60
2018-07-11T03:34:16.072Z,7.83
2018-07-11T03:36:44.931Z,6.77
2018-07-11T03:39:13.947Z,6.93
2018-07-11T03:41:44.139Z,7.57
2018-07-11T03:44:13.075Z,6.07
2018-07-11T03:46:42.036Z,6.83
2018-07-11T03:49:11.098Z,8.13
2018-07-11T03:51:40.009Z,7.43
2018-07-11T03:54:08.965Z,7.73
2018-07-11T03:56:38.021Z,7.10
2018-07-11T03:59:06.935Z,8.23
2018-07-11T04:01:35.820Z,6.43
2018-07-11T04:04:04.730Z,6.70
2018-07-11T04:06:33.531Z,7.20
2018-07-11T04:09:02.418Z,7.73
2018-07-11T04:11:31.378Z,7.27
2018-07-11T04:14:00.364Z,9.07
2018-07-11T04:16:29.303Z,7.27
2018-07-11T04:18:58.307Z,7.83
2018-07-11T04:21:27.185Z,7.63
2018-07-11T04:23:56.130Z,7.00
2018-07-11T04:26:25.215Z,7.57
2018-07-11T04:28:54.641Z,7.13
2018-07-11T04:31:23.497Z,6.97
2018-07-11T04:33:52.428Z,8.40
2018-07-11T04:36:21.676Z,7.07
2018-07-11T04:38:50.154Z,6.97
2018-07-11T04:41:18.644Z,9.50
2018-07-11T04:43:47.642Z,6.47
2018-07-11T04:46:17.128Z,7.97
2018-07-11T04:48:46.031Z,6.63
2018-07-11T04:51:14.835Z,6.63
2018-07-11T04:53:45.174Z,6.70
2018-07-11T04:56:14.152Z,8.00
2018-07-11T04:58:43.107Z,7.70
2018-07-11T05:01:11.878Z,7.00
2018-07-11T05:03:40.759Z,7.53
2018-07-11T05:06:09.612Z,8.50
2018-07-11T05:08:38.447Z,6.70
2018-07-11T05:11:07.449Z,7.53
2018-07-11T05:13:36.330Z,9.90
2018-07-11T05:16:06.008Z,7.37
2018-07-11T05:18:35.140Z,6.20
2018-07-11T05:21:03.985Z,6.77
2018-07-11T05:23:32.792Z,6.30
2018-07-11T05:26:01.951Z,7.13
2018-07-11T05:28:30.742Z,7.23
2018-07-11T05:30:59.604Z,6.53
2018-07-11T05:33:28.551Z,7.77
2018-07-11T05:35:57.510Z,7.60
2018-07-11T05:38:26.486Z,13.00
2018-07-11T05:40:55.357Z,8.57
2018-07-11T05:43:24.362Z,9.27
2018-07-11T05:45:53.678Z,7.50
2018-07-11T05:48:23.952Z,8.33
2018-07-11T05:50:52.944Z,7.10
2018-07-11T05:53:21.923Z,7.57
2018-07-11T05:55:50.893Z,7.00
2018-07-11T05:58:19.830Z,7.93
2018-07-11T06:00:48.728Z,8.80
2018-07-11T06:03:17.947Z,9.00
2018-07-11T06:05:47.209Z,7.87
2018-07-11T06:08:16.617Z,8.30
2018-07-11T06:10:46.075Z,7.80
2018-07-11T06:13:14.971Z,8.13
2018-07-11T06:15:43.908Z,7.47
2018-07-11T06:18:13.115Z,8.53
2018-07-11T06:20:42.749Z,8.87
2018-07-11T06:23:11.642Z,7.63
2018-07-11T06:25:40.582Z,8.30
2018-07-11T06:28:09.730Z,8.20
2018-07-11T06:30:38.446Z,8.63
2018-07-11T06:33:07.338Z,7.67
2018-07-11T06:35:36.248Z,8.30
2018-07-11T06:38:05.170Z,8.83
2018-07-11T06:40:34.000Z,9.07
2018-07-11T06:43:02.874Z,11.27
2018-07-11T06:45:31.847Z,11.33
2018-07-11T06:48:01.017Z,9.40
2018-07-11T06:50:29.849Z,9.07
2018-07-11T06:52:59.587Z,8.10
2018-07-11T06:55:28.481Z,7.87
2018-07-11T06:57:57.404Z,7.77
2018-07-11T07:00:26.242Z,7.67
2018-07-11T07:02:55.180Z,8.10
2018-07-11T07:05:24.067Z,8.03
2018-07-11T07:07:52.898Z,7.40
2018-07-11T07:10:21.703Z,9.20
2018-07-11T07:12:50.583Z,7.57
2018-07-11T07:15:19.508Z,10.97
2018-07-11T07:17:48.065Z,8.67
2018-07-11T07:20:16.897Z,7.93
2018-07-11T07:22:46.025Z,7.77
2018-07-11T07:25:15.604Z,8.33
2018-07-11T07:27:45.049Z,7.43
2018-07-11T07:30:13.847Z,6.90
2018-07-11T07:32:42.759Z,7.97
2018-07-11T07:35:11.433Z,7.93
2018-07-11T07:37:40.569Z,7.63
2018-07-11T07:40:10.622Z,8.17
2018-07-11T07:42:39.862Z,7.47
2018-07-11T07:45:08.339Z,7.10
2018-07-11T07:47:42.604Z,6.00
2018-07-11T07:50:11.741Z,6.77
2018-07-11T07:52:41.180Z,4.97
2018-07-11T07:58:00.579Z,8.83
2018-07-11T08:00:29.520Z,5.27
2018-07-11T08:02:58.558Z,6.10
2018-07-11T08:05:27.407Z,5.57
2018-07-11T08:07:56.393Z,6.80
2018-07-11T08:10:25.337Z,6.10
2018-07-11T08:12:54.280Z,9.43
2018-07-11T08:15:23.344Z,5.87
2018-07-11T08:17:52.265Z,6.73
2018-07-11T08:20:21.205Z,6.47
2018-07-11T08:23:26.691Z,6.43
2018-07-11T08:26:07.410Z,7.43
2018-07-11T08:30:53.045Z,8.17
2018-07-11T08:33:34.753Z,7.50
2018-07-11T08:38:18.141Z,7.63
2018-07-11T08:41:15.827Z,8.70
2018-07-11T08:45:02.575Z,7.63
2018-07-11T08:47:44.533Z,8.33
2018-07-11T08:50:23.266Z,7.67
2018-07-11T08:53:06.166Z,7.57
2018-07-11T08:55:45.376Z,7.37
2018-07-11T08:58:29.377Z,7.57
2018-07-11T09:01:09.555Z,8.27
2018-07-11T09:03:53.907Z,7.50
2018-07-11T09:06:33.488Z,7.10
2018-07-11T09:11:13.191Z,6.97
2018-07-11T09:13:56.826Z,6.67
2018-07-11T09:17:34.680Z,7.10
2018-07-11T09:22:18.501Z,7.03
2018-07-11T09:24:49.578Z,7.50
2018-07-11T09:27:18.584Z,6.97
2018-07-11T09:29:48.274Z,9.87
2018-07-11T09:32:17.224Z,7.53
2018-07-11T09:34:46.873Z,8.23
2018-07-11T09:37:16.143Z,8.03
2018-07-11T09:39:45.209Z,7.87
2018-07-11T09:42:14.024Z,7.30
2018-07-11T09:44:43.100Z,7.27
2018-07-11T09:47:17.520Z,9.17
2018-07-11T09:49:46.907Z,6.23
2018-07-11T09:52:15.934Z,7.30
2018-07-11T09:54:44.782Z,6.90
2018-07-11T09:57:13.415Z,7.50
2018-07-11T09:59:42.842Z,7.40
2018-07-11T10:02:12.248Z,6.77
2018-07-11T10:04:42.110Z,6.90
2018-07-11T10:07:11.280Z,6.40
2018-07-11T10:09:40.616Z,7.83
2018-07-11T10:12:09.691Z,6.20
2018-07-11T10:14:38.721Z,6.23
2018-07-11T10:17:07.782Z,7.03
2018-07-11T10:19:55.196Z,6.87
2018-07-11T10:22:24.124Z,6.83
2018-07-11T10:24:52.988Z,8.97
2018-07-11T10:27:21.906Z,6.20
2018-07-11T10:29:51.318Z,6.60
2018-07-11T10:32:20.196Z,6.83
2018-07-11T10:34:49.568Z,6.30
2018-07-11T10:37:18.574Z,5.67
2018-07-11T10:39:47.468Z,5.67
2018-07-11T10:42:16.279Z,6.10
2018-07-11T10:44:45.254Z,6.23
2018-07-11T10:47:14.588Z,7.30
2018-07-11T10:49:44.446Z,5.17
2018-07-11T10:52:13.357Z,5.10
2018-07-11T10:54:42.284Z,4.47
2018-07-11T10:57:11.156Z,4.60
2018-07-11T10:59:41.961Z,4.23
2018-07-11T11:02:11.557Z,6.63
2018-07-11T11:04:40.469Z,5.47
2018-07-11T11:07:09.186Z,7.90
2018-07-11T11:09:38.026Z,5.47
2018-07-11T11:12:06.976Z,6.17
2018-07-11T11:14:36.087Z,5.00
2018-07-11T11:17:05.397Z,4.97
2018-07-11T11:19:33.795Z,4.90
2018-07-11T11:22:02.591Z,7.53
2018-07-11T11:24:31.321Z,5.27
2018-07-11T11:27:00.768Z,5.63
2018-07-11T11:29:29.842Z,7.23
2018-07-11T11:31:58.867Z,5.87
2018-07-11T11:34:27.767Z,4.73
2018-07-11T11:36:56.691Z,5.07
2018-07-11T11:39:25.731Z,5.73
2018-07-11T11:41:54.560Z,5.20
2018-07-11T11:44:23.301Z,5.00
2018-07-11T11:46:52.234Z,5.43
2018-07-11T11:49:21.151Z,4.93
2018-07-11T11:51:50.109Z,5.50
2018-07-11T11:54:18.900Z,4.63
2018-07-11T11:56:48.097Z,6.00
2018-07-11T11:59:17.031Z,4.87
2018-07-11T12:01:46.147Z,4.47
2018-07-11T12:04:15.131Z,4.07
2018-07-11T12:06:44.284Z,4.13
2018-07-11T12:09:13.631Z,3.87
2018-07-11T12:11:42.672Z,4.07
2018-07-11T12:14:10.995Z,4.07
2018-07-11T12:16:39.792Z,4.00
2018-07-11T12:19:08.540Z,4.13
2018-07-11T12:21:37.471Z,5.57
2018-07-11T12:24:06.919Z,4.03
2018-07-11T12:26:35.856Z,4.23
2018-07-11T12:29:04.579Z,5.07
2018-07-11T12:31:33.936Z,4.83
2018-07-11T12:34:03.181Z,4.67
2018-07-11T12:36:32.057Z,4.10
2018-07-11T12:39:00.995Z,3.87
2018-07-11T12:41:30.313Z,4.50
2018-07-11T12:43:59.270Z,4.40
2018-07-11T12:46:28.339Z,4.37
2018-07-11T12:49:05.196Z,4.80
2018-07-11T12:51:34.631Z,4.50
2018-07-11T12:54:04.456Z,4.37
2018-07-11T12:56:33.447Z,5.13
2018-07-11T12:59:02.650Z,4.60
2018-07-11T13:01:31.503Z,4.70
2018-07-11T13:06:35.049Z,5.93
2018-07-11T13:09:05.040Z,4.90
2018-07-11T13:11:33.911Z,7.17
2018-07-11T13:14:02.827Z,4.60
2018-07-11T13:16:32.534Z,5.40
2018-07-11T13:19:01.883Z,5.23
2018-07-11T13:21:31.214Z,3.80
2018-07-11T13:24:00.323Z,4.23
2018-07-11T13:26:29.263Z,4.30
2018-07-11T13:28:58.065Z,4.27
2018-07-11T13:31:26.998Z,4.20
2018-07-11T13:33:56.141Z,3.93
2018-07-11T13:36:25.064Z,4.20
2018-07-11T13:38:53.883Z,4.17
2018-07-11T13:41:22.675Z,6.40
2018-07-11T13:43:51.679Z,3.67
2018-07-11T13:46:20.593Z,5.67
2018-07-11T13:48:49.340Z,3.30
2018-07-11T13:51:18.032Z,3.17
2018-07-11T13:53:47.181Z,3.23
2018-07-11T13:56:16.104Z,2.50
2018-07-11T13:58:45.653Z,2.50
2018-07-11T14:01:14.444Z,2.60
2018-07-11T14:03:43.306Z,2.47
2018-07-11T14:06:12.097Z,2.97
2018-07-11T14:08:41.061Z,2.03
2018-07-11T14:11:09.752Z,2.50
2018-07-11T14:13:38.611Z,2.77
2018-07-11T14:16:07.387Z,2.80
2018-07-11T14:18:36.160Z,2.10
2018-07-11T14:21:04.908Z,2.70
2018-07-11T14:23:40.715Z,2.80
2018-07-11T14:26:09.815Z,2.77
2018-07-11T14:28:42.815Z,3.00
2018-07-11T14:31:12.410Z,2.70
2018-07-11T14:33:43.741Z,2.47
2018-07-11T14:36:12.743Z,2.67
2018-07-11T14:38:41.694Z,2.73
2018-07-11T14:41:10.838Z,2.80
2018-07-11T14:43:39.920Z,3.10
2018-07-11T14:46:09.050Z,3.30
2018-07-11T14:48:37.971Z,3.33
2018-07-11T14:51:07.075Z,3.87
2018-07-11T14:53:36.121Z,3.40
2018-07-11T14:56:05.140Z,3.50
2018-07-11T14:58:33.931Z,3.77
2018-07-11T15:01:02.823Z,3.50
2018-07-11T15:03:31.602Z,5.50
2018-07-11T15:06:00.646Z,3.07
2018-07-11T15:08:29.635Z,3.60
2018-07-11T15:10:58.421Z,3.10
2018-07-11T15:13:27.271Z,3.10
2018-07-11T15:15:56.081Z,2.93
2018-07-11T15:18:24.903Z,3.47
2018-07-11T15:20:54.411Z,2.90
2018-07-11T15:23:23.112Z,2.80
2018-07-11T15:25:52.081Z,3.73
2018-07-11T15:28:20.919Z,3.17
2018-07-11T15:30:49.615Z,3.00
2018-07-11T15:33:19.120Z,3.37
2018-07-11T15:35:47.866Z,3.30
2018-07-11T15:38:16.419Z,3.00
2018-07-11T15:40:44.996Z,3.60
2018-07-11T15:43:13.582Z,3.40
2018-07-11T15:45:42.059Z,4.30
2018-07-11T15:48:11.303Z,3.07
2018-07-11T15:50:40.365Z,3.03
2018-07-11T15:53:09.011Z,3.30
2018-07-11T15:55:37.589Z,3.23
2018-07-11T15:58:10.326Z,3.13
2018-07-11T16:00:41.101Z,3.10
2018-07-11T16:03:11.446Z,2.60
2018-07-11T16:05:42.300Z,3.43
2018-07-11T16:08:10.717Z,2.80
2018-07-11T16:10:45.452Z,2.97
2018-07-11T16:13:14.048Z,3.20
2018-07-11T16:15:43.123Z,3.03
2018-07-11T16:18:11.727Z,2.73
2018-07-11T16:20:40.995Z,2.77
2018-07-11T16:23:10.043Z,3.00
2018-07-11T16:25:40.287Z,2.73
2018-07-11T16:28:08.907Z,2.80
2018-07-11T16:30:38.651Z,2.57
2018-07-11T16:33:07.162Z,3.07
2018-07-11T16:35:35.779Z,4.33
2018-07-11T16:38:04.419Z,2.80
2018-07-11T16:40:33.451Z,2.53
2018-07-11T16:43:02.825Z,2.30
2018-07-11T16:45:32.056Z,2.90
2018-07-11T16:48:01.146Z,2.83
2018-07-11T16:50:29.780Z,2.33
2018-07-11T16:52:58.461Z,2.90
2018-07-11T16:55:27.333Z,2.80
2018-07-11T16:57:56.240Z,2.63
2018-07-11T17:00:30.052Z,2.40
2018-07-11T17:03:11.539Z,2.83
2018-07-11T17:05:54.761Z,2.57
2018-07-11T17:08:30.819Z,2.73
2018-07-11T17:11:07.374Z,3.10
2018-07-11T17:13:35.957Z,2.80
2018-07-11T17:16:04.277Z,5.43
2018-07-11T17:18:39.561Z,2.97
2018-07-11T17:21:09.979Z,3.43
2018-07-11T17:23:48.401Z,2.73
2018-07-11T17:26:17.317Z,3.10
2018-07-11T17:28:46.356Z,6.03
2018-07-11T17:31:15.010Z,3.30
2018-07-11T17:33:43.585Z,2.90
2018-07-11T17:36:12.290Z,2.87
2018-07-11T17:38:40.924Z,3.23
2018-07-11T17:41:09.496Z,2.83
2018-07-11T17:43:39.399Z,3.43
2018-07-11T17:46:08.340Z,3.17
2018-07-11T17:48:42.703Z,3.60
2018-07-11T17:51:31.924Z,3.03
2018-07-11T17:54:02.337Z,2.90
2018-07-11T17:56:43.661Z,2.90
2018-07-11T17:59:13.433Z,3.03
2018-07-11T18:01:44.245Z,3.10
2018-07-11T18:04:26.769Z,3.50
2018-07-11T18:07:01.158Z,3.03
2018-07-11T18:09:39.823Z,3.13
2018-07-11T18:12:11.574Z,2.80
2018-07-11T18:14:50.411Z,2.93
2018-07-11T18:20:05.033Z,2.83
2018-07-11T18:24:44.166Z,3.30
2018-07-11T18:31:32.080Z,3.73
2018-07-11T18:34:12.674Z,3.40
2018-07-11T18:36:47.764Z,3.50
2018-07-11T18:39:26.425Z,3.00
2018-07-11T18:42:09.654Z,3.40
2018-07-11T18:46:54.156Z,3.03
2018-07-11T18:52:06.149Z,3.90
2018-07-11T18:57:00.077Z,3.70
2018-07-11T18:59:40.209Z,3.30
2018-07-11T19:02:20.321Z,3.50
2018-07-11T19:05:14.753Z,3.87
2018-07-11T19:07:56.877Z,3.30
2018-07-11T19:10:35.020Z,3.63
2018-07-11T19:13:13.620Z,3.97
2018-07-11T19:15:44.818Z,3.93
2018-07-11T19:18:19.885Z,3.53
2018-07-11T19:21:03.753Z,4.10
2018-07-11T19:23:43.999Z,3.80
2018-07-11T19:28:36.111Z,4.27
2018-07-11T19:31:16.097Z,4.33
2018-07-11T19:33:56.388Z,4.27
2018-07-11T19:36:31.258Z,4.47
2018-07-11T19:39:11.364Z,3.93
2018-07-11T19:41:56.054Z,3.90
2018-07-11T19:48:46.910Z,4.20
2018-07-11T19:51:24.535Z,4.63
2018-07-11T19:54:08.266Z,4.80
2018-07-11T19:56:43.273Z,5.03
2018-07-11T19:59:12.155Z,4.37
2018-07-11T20:01:40.948Z,5.73
2018-07-11T20:04:13.550Z,4.47
2018-07-11T20:06:43.094Z,7.10
2018-07-11T20:09:12.244Z,4.70
2018-07-11T20:11:41.649Z,4.90
2018-07-11T20:14:10.907Z,5.03
2018-07-11T20:16:39.765Z,5.20
2018-07-11T20:19:08.672Z,4.63
2018-07-11T20:21:37.667Z,4.50
2018-07-11T20:24:06.452Z,5.00
2018-07-11T20:26:35.370Z,5.30
2018-07-11T20:29:04.188Z,5.43
2018-07-11T20:31:33.403Z,4.70
2018-07-11T20:34:02.742Z,5.07
2018-07-11T20:36:31.762Z,6.63
2018-07-11T20:39:00.710Z,5.10
2018-07-11T20:41:29.111Z,4.53
2018-07-11T20:43:58.013Z,5.67
2018-07-11T20:46:26.954Z,5.60
2018-07-11T20:48:55.949Z,5.47
2018-07-11T20:51:24.728Z,5.50
2018-07-11T20:53:53.504Z,5.60
2018-07-11T20:56:22.373Z,7.10
2018-07-11T20:59:02.091Z,6.30
2018-07-11T21:01:41.775Z,7.20
2018-07-11T21:06:26.774Z,5.50
2018-07-11T21:09:06.425Z,5.23
2018-07-11T21:11:46.304Z,5.17
2018-07-11T21:14:20.075Z,7.63
2018-07-11T21:19:37.515Z,5.63
2018-07-11T21:22:06.463Z,5.53
2018-07-11T21:24:35.227Z,6.23
2018-07-11T21:27:04.151Z,6.20
2018-07-11T21:29:32.834Z,6.10
2018-07-11T21:32:01.547Z,5.77
2018-07-11T21:34:30.429Z,5.63
2018-07-11T21:36:59.307Z,6.10
2018-07-11T21:39:28.051Z,7.80
2018-07-11T21:41:56.792Z,6.13
2018-07-11T21:44:25.656Z,5.87
2018-07-11T21:46:54.719Z,7.57
2018-07-11T21:49:23.833Z,10.03
2018-07-11T21:51:53.114Z,5.90
2018-07-11T21:54:21.942Z,5.90
2018-07-11T21:56:51.019Z,7.33
2018-07-11T21:59:20.034Z,5.80
2018-07-11T22:01:49.000Z,8.90
2018-07-11T22:04:17.796Z,5.90
2018-07-11T22:06:48.987Z,5.90
2018-07-11T22:09:17.931Z,6.13
2018-07-11T22:11:47.110Z,5.63
2018-07-11T22:14:16.519Z,5.90
2018-07-11T22:16:45.792Z,5.80
2018-07-11T22:19:14.651Z,5.40
2018-07-11T22:21:43.043Z,6.70
2018-07-11T22:24:10.635Z,5.70
2018-07-11T22:26:38.162Z,5.87
2018-07-11T22:29:05.683Z,5.93
2018-07-11T22:31:33.228Z,5.63
2018-07-11T22:34:00.724Z,6.73
2018-07-11T22:36:28.135Z,7.07
2018-07-11T22:38:55.661Z,7.90
2018-07-11T22:41:23.124Z,5.70
2018-07-11T22:43:50.770Z,6.73
2018-07-11T22:46:18.253Z,6.30
2018-07-11T22:48:45.990Z,6.17
2018-07-11T22:51:13.773Z,5.77
2018-07-11T22:53:41.399Z,5.87
2018-07-11T22:56:08.837Z,6.30
2018-07-11T22:58:36.683Z,5.60
2018-07-11T23:01:04.231Z,5.83
2018-07-11T23:03:31.663Z,5.97
2018-07-11T23:05:59.159Z,6.57
2018-07-11T23:08:26.573Z,5.97
2018-07-11T23:10:54.063Z,6.23
2018-07-11T23:13:21.523Z,6.73
2018-07-11T23:15:49.141Z,6.23
2018-07-11T23:18:17.530Z,6.53
2018-07-11T23:20:45.315Z,7.57
2018-07-11T23:23:13.079Z,7.53
2018-07-11T23:25:40.611Z,8.80
2018-07-11T23:28:08.058Z,5.97
2018-07-11T23:30:35.851Z,6.60
2018-07-11T23:33:03.288Z,6.47
2018-07-11T23:35:30.824Z,6.53
2018-07-11T23:37:58.255Z,8.50
2018-07-11T23:40:25.759Z,7.00
2018-07-11T23:42:53.295Z,7.23
2018-07-11T23:45:20.756Z,6.83
2018-07-11T23:47:48.186Z,6.93
2018-07-11T23:50:16.003Z,7.07
2018-07-11T23:52:43.416Z,6.53
2018-07-11T23:55:10.829Z,7.87
2018-07-11T23:57:38.324Z,6.87
